sensor_id;sensor_type;location;lat;lon;timestamp;temperature;humidity
19622;DHT22;9958;33.196;-97.114;2023-03-23T00:00:19;27.20;99.90
19622;DHT22;9958;33.196;-97.114;2023-03-23T00:02:48;27.10;99.90
19622;DHT22;9958;33.196;-97.114;2023-03-23T00:05:16;27.00;99.90
19622;DHT22;9958;33.196;-97.114;2023-03-23T00:07:45;27.00;99.90
19622;DHT22;9958;33.196;-97.114;2023-03-23T00:10:19;26.90;99.90
19622;DHT22;9958;33.196;-97.114;2023-03-23T00:12:48;26.80;99.90
19622;DHT22;9958;33.196;-97.114;2023-03-23T00:15:16;26.70;99.90
19622;DHT22;9958;33.196;-97.114;2023-03-23T00:17:45;26.60;99.90
19622;DHT22;9958;33.196;-97.114;2023-03-23T00:20:13;26.60;99.90
19622;DHT22;9958;33.196;-97.114;2023-03-23T00:22:41;26.50;99.90
19622;DHT22;9958;33.196;-97.114;2023-03-23T00:25:09;26.40;99.90
19622;DHT22;9958;33.196;-97.114;2023-03-23T00:27:39;26.40;99.90
19622;DHT22;9958;33.196;-97.114;2023-03-23T00:30:08;26.30;99.90
19622;DHT22;9958;33.196;-97.114;2023-03-23T00:32:37;26.20;99.90
19622;DHT22;9958;33.196;-97.114;2023-03-23T00:35:06;26.10;99.90
19622;DHT22;9958;33.196;-97.114;2023-03-23T00:37:35;26.00;99.90
19622;DHT22;9958;33.196;-97.114;2023-03-23T00:40:04;25.90;99.90
19622;DHT22;9958;33.196;-97.114;2023-03-23T00:42:36;25.90;99.90
19622;DHT22;9958;33.196;-97.114;2023-03-23T00:45:07;25.80;99.90
19622;DHT22;9958;33.196;-97.114;2023-03-23T00:47:38;25.70;99.90
19622;DHT22;9958;33.196;-97.114;2023-03-23T00:50:08;25.60;99.90
19622;DHT22;9958;33.196;-97.114;2023-03-23T00:52:39;25.60;99.90
19622;DHT22;9958;33.196;-97.114;2023-03-23T00:55:08;25.50;99.90
19622;DHT22;9958;33.196;-97.114;2023-03-23T00:57:36;25.40;99.90
19622;DHT22;9958;33.196;-97.114;2023-03-23T01:00:08;25.40;99.90
19622;DHT22;9958;33.196;-97.114;2023-03-23T01:02:37;25.30;99.90
19622;DHT22;9958;33.196;-97.114;2023-03-23T01:05:07;25.30;99.90
19622;DHT22;9958;33.196;-97.114;2023-03-23T01:07:35;25.20;99.90
19622;DHT22;9958;33.196;-97.114;2023-03-23T01:10:05;25.10;99.90
19622;DHT22;9958;33.196;-97.114;2023-03-23T01:12:34;25.10;99.90
19622;DHT22;9958;33.196;-97.114;2023-03-23T01:15:02;25.00;99.90
19622;DHT22;9958;33.196;-97.114;2023-03-23T01:17:32;25.00;99.90
19622;DHT22;9958;33.196;-97.114;2023-03-23T01:20:01;24.90;99.90
19622;DHT22;9958;33.196;-97.114;2023-03-23T01:22:31;24.90;99.90
19622;DHT22;9958;33.196;-97.114;2023-03-23T01:25:00;24.90;99.90
19622;DHT22;9958;33.196;-97.114;2023-03-23T01:27:28;24.80;99.90
19622;DHT22;9958;33.196;-97.114;2023-03-23T01:29:57;24.70;99.90
19622;DHT22;9958;33.196;-97.114;2023-03-23T01:32:25;24.70;99.90
19622;DHT22;9958;33.196;-97.114;2023-03-23T01:34:55;24.70;99.90
19622;DHT22;9958;33.196;-97.114;2023-03-23T01:37:23;24.60;99.90
19622;DHT22;9958;33.196;-97.114;2023-03-23T01:39:53;24.50;99.90
19622;DHT22;9958;33.196;-97.114;2023-03-23T01:42:22;24.60;99.90
19622;DHT22;9958;33.196;-97.114;2023-03-23T01:45:24;24.50;99.90
19622;DHT22;9958;33.196;-97.114;2023-03-23T01:47:57;24.50;99.90
19622;DHT22;9958;33.196;-97.114;2023-03-23T01:50:31;24.40;99.90
19622;DHT22;9958;33.196;-97.114;2023-03-23T01:53:02;24.40;99.90
19622;DHT22;9958;33.196;-97.114;2023-03-23T01:55:36;24.30;99.90
19622;DHT22;9958;33.196;-97.114;2023-03-23T01:58:07;24.30;99.90
19622;DHT22;9958;33.196;-97.114;2023-03-23T02:00:36;24.30;99.90
19622;DHT22;9958;33.196;-97.114;2023-03-23T02:03:06;24.20;99.90
19622;DHT22;9958;33.196;-97.114;2023-03-23T02:05:41;24.20;99.90
19622;DHT22;9958;33.196;-97.114;2023-03-23T02:08:10;24.20;99.90
19622;DHT22;9958;33.196;-97.114;2023-03-23T02:10:40;24.10;99.90
19622;DHT22;9958;33.196;-97.114;2023-03-23T02:13:09;24.10;99.90
19622;DHT22;9958;33.196;-97.114;2023-03-23T02:15:58;24.10;99.90
19622;DHT22;9958;33.196;-97.114;2023-03-23T02:18:41;24.00;99.90
19622;DHT22;9958;33.196;-97.114;2023-03-23T02:24:43;23.90;99.90
19622;DHT22;9958;33.196;-97.114;2023-03-23T02:27:25;23.90;99.90
19622;DHT22;9958;33.196;-97.114;2023-03-23T02:33:27;23.80;99.90
19622;DHT22;9958;33.196;-97.114;2023-03-23T02:36:00;23.80;99.90
19622;DHT22;9958;33.196;-97.114;2023-03-23T02:38:33;23.80;99.90
19622;DHT22;9958;33.196;-97.114;2023-03-23T02:41:03;23.70;99.90
19622;DHT22;9958;33.196;-97.114;2023-03-23T02:43:36;23.70;99.90
19622;DHT22;9958;33.196;-97.114;2023-03-23T02:46:08;23.60;99.90
19622;DHT22;9958;33.196;-97.114;2023-03-23T02:48:41;23.60;99.90
19622;DHT22;9958;33.196;-97.114;2023-03-23T02:51:11;23.60;99.90
19622;DHT22;9958;33.196;-97.114;2023-03-23T02:53:41;23.60;99.90
19622;DHT22;9958;33.196;-97.114;2023-03-23T02:56:11;23.50;99.90
19622;DHT22;9958;33.196;-97.114;2023-03-23T02:58:40;23.50;99.90
19622;DHT22;9958;33.196;-97.114;2023-03-23T03:01:50;23.50;99.90
19622;DHT22;9958;33.196;-97.114;2023-03-23T03:04:22;23.40;99.90
19622;DHT22;9958;33.196;-97.114;2023-03-23T03:09:50;23.40;99.90
19622;DHT22;9958;33.196;-97.114;2023-03-23T03:12:27;23.40;99.90
19622;DHT22;9958;33.196;-97.114;2023-03-23T03:15:07;23.30;99.90
19622;DHT22;9958;33.196;-97.114;2023-03-23T03:17:41;23.30;99.90
19622;DHT22;9958;33.196;-97.114;2023-03-23T03:20:13;23.30;99.90
19622;DHT22;9958;33.196;-97.114;2023-03-23T03:22:43;23.20;99.90
19622;DHT22;9958;33.196;-97.114;2023-03-23T03:25:15;23.20;99.90
19622;DHT22;9958;33.196;-97.114;2023-03-23T03:27:45;23.20;99.90
19622;DHT22;9958;33.196;-97.114;2023-03-23T03:30:19;23.10;99.90
19622;DHT22;9958;33.196;-97.114;2023-03-23T03:32:51;23.10;99.90
19622;DHT22;9958;33.196;-97.114;2023-03-23T03:35:23;23.10;99.90
19622;DHT22;9958;33.196;-97.114;2023-03-23T03:37:52;23.10;99.90
19622;DHT22;9958;33.196;-97.114;2023-03-23T03:40:22;23.00;99.90
19622;DHT22;9958;33.196;-97.114;2023-03-23T03:42:50;23.00;99.90
19622;DHT22;9958;33.196;-97.114;2023-03-23T03:45:19;23.00;99.90
19622;DHT22;9958;33.196;-97.114;2023-03-23T03:47:48;22.90;99.90
19622;DHT22;9958;33.196;-97.114;2023-03-23T03:50:17;22.90;99.90
19622;DHT22;9958;33.196;-97.114;2023-03-23T03:52:46;22.80;99.90
19622;DHT22;9958;33.196;-97.114;2023-03-23T03:55:15;22.80;99.90
19622;DHT22;9958;33.196;-97.114;2023-03-23T03:57:43;22.80;99.90
19622;DHT22;9958;33.196;-97.114;2023-03-23T04:00:13;22.80;99.90
19622;DHT22;9958;33.196;-97.114;2023-03-23T04:02:43;22.80;99.90
19622;DHT22;9958;33.196;-97.114;2023-03-23T04:05:13;22.70;99.90
19622;DHT22;9958;33.196;-97.114;2023-03-23T04:07:42;22.70;99.90
19622;DHT22;9958;33.196;-97.114;2023-03-23T04:10:13;22.70;99.90
19622;DHT22;9958;33.196;-97.114;2023-03-23T04:12:42;22.60;99.90
19622;DHT22;9958;33.196;-97.114;2023-03-23T04:15:10;22.60;99.90
19622;DHT22;9958;33.196;-97.114;2023-03-23T04:17:39;22.60;99.90
19622;DHT22;9958;33.196;-97.114;2023-03-23T04:20:10;22.50;99.90
19622;DHT22;9958;33.196;-97.114;2023-03-23T04:22:41;22.50;99.90
19622;DHT22;9958;33.196;-97.114;2023-03-23T04:25:13;22.50;99.90
19622;DHT22;9958;33.196;-97.114;2023-03-23T04:27:42;22.50;99.90
19622;DHT22;9958;33.196;-97.114;2023-03-23T04:30:13;22.40;99.90
19622;DHT22;9958;33.196;-97.114;2023-03-23T04:32:42;22.40;99.90
19622;DHT22;9958;33.196;-97.114;2023-03-23T04:35:12;22.30;99.90
19622;DHT22;9958;33.196;-97.114;2023-03-23T04:37:40;22.30;99.90
19622;DHT22;9958;33.196;-97.114;2023-03-23T04:40:10;22.30;99.90
19622;DHT22;9958;33.196;-97.114;2023-03-23T04:42:42;22.30;99.90
19622;DHT22;9958;33.196;-97.114;2023-03-23T04:45:13;22.20;99.90
19622;DHT22;9958;33.196;-97.114;2023-03-23T04:47:42;22.20;99.90
19622;DHT22;9958;33.196;-97.114;2023-03-23T04:50:20;22.20;99.90
19622;DHT22;9958;33.196;-97.114;2023-03-23T04:52:50;22.20;99.90
19622;DHT22;9958;33.196;-97.114;2023-03-23T04:55:20;22.10;99.90
19622;DHT22;9958;33.196;-97.114;2023-03-23T04:57:50;22.10;99.90
19622;DHT22;9958;33.196;-97.114;2023-03-23T05:00:20;22.00;99.90
19622;DHT22;9958;33.196;-97.114;2023-03-23T05:02:48;22.00;99.90
19622;DHT22;9958;33.196;-97.114;2023-03-23T05:05:19;22.00;99.90
19622;DHT22;9958;33.196;-97.114;2023-03-23T05:07:48;22.00;99.90
19622;DHT22;9958;33.196;-97.114;2023-03-23T05:10:17;22.00;99.90
19622;DHT22;9958;33.196;-97.114;2023-03-23T05:12:45;22.00;99.90
19622;DHT22;9958;33.196;-97.114;2023-03-23T05:15:16;21.90;99.90
19622;DHT22;9958;33.196;-97.114;2023-03-23T05:17:44;21.90;99.90
19622;DHT22;9958;33.196;-97.114;2023-03-23T05:20:16;21.90;99.90
19622;DHT22;9958;33.196;-97.114;2023-03-23T05:22:46;21.90;99.90
19622;DHT22;9958;33.196;-97.114;2023-03-23T05:25:16;21.90;99.90
19622;DHT22;9958;33.196;-97.114;2023-03-23T05:27:47;21.90;99.90
19622;DHT22;9958;33.196;-97.114;2023-03-23T05:30:21;21.90;99.90
19622;DHT22;9958;33.196;-97.114;2023-03-23T05:32:49;21.80;99.90
19622;DHT22;9958;33.196;-97.114;2023-03-23T05:35:19;21.80;99.90
19622;DHT22;9958;33.196;-97.114;2023-03-23T05:37:47;21.80;99.90
19622;DHT22;9958;33.196;-97.114;2023-03-23T05:40:16;21.80;99.90
19622;DHT22;9958;33.196;-97.114;2023-03-23T05:42:44;21.80;99.90
19622;DHT22;9958;33.196;-97.114;2023-03-23T05:45:13;21.70;99.90
19622;DHT22;9958;33.196;-97.114;2023-03-23T05:47:44;21.70;99.90
19622;DHT22;9958;33.196;-97.114;2023-03-23T05:50:13;21.70;99.90
19622;DHT22;9958;33.196;-97.114;2023-03-23T05:52:41;21.70;99.90
19622;DHT22;9958;33.196;-97.114;2023-03-23T05:55:10;21.70;99.90
19622;DHT22;9958;33.196;-97.114;2023-03-23T05:57:39;21.60;99.90
19622;DHT22;9958;33.196;-97.114;2023-03-23T06:00:08;21.60;99.90
19622;DHT22;9958;33.196;-97.114;2023-03-23T06:02:48;21.60;99.90
19622;DHT22;9958;33.196;-97.114;2023-03-23T06:05:17;21.60;99.90
19622;DHT22;9958;33.196;-97.114;2023-03-23T06:07:46;21.50;99.90
19622;DHT22;9958;33.196;-97.114;2023-03-23T06:10:14;21.50;99.90
19622;DHT22;9958;33.196;-97.114;2023-03-23T06:12:42;21.50;99.90
19622;DHT22;9958;33.196;-97.114;2023-03-23T06:15:11;21.40;99.90
19622;DHT22;9958;33.196;-97.114;2023-03-23T06:17:40;21.40;99.90
19622;DHT22;9958;33.196;-97.114;2023-03-23T06:20:11;21.40;99.90
19622;DHT22;9958;33.196;-97.114;2023-03-23T06:22:40;21.40;99.90
19622;DHT22;9958;33.196;-97.114;2023-03-23T06:25:09;21.30;99.90
19622;DHT22;9958;33.196;-97.114;2023-03-23T06:27:39;21.40;99.90
19622;DHT22;9958;33.196;-97.114;2023-03-23T06:30:08;21.30;99.90
19622;DHT22;9958;33.196;-97.114;2023-03-23T06:32:38;21.30;99.90
19622;DHT22;9958;33.196;-97.114;2023-03-23T06:35:09;21.30;99.90
19622;DHT22;9958;33.196;-97.114;2023-03-23T06:37:38;21.30;99.90
19622;DHT22;9958;33.196;-97.114;2023-03-23T06:40:07;21.20;99.90
19622;DHT22;9958;33.196;-97.114;2023-03-23T06:42:36;21.20;99.90
19622;DHT22;9958;33.196;-97.114;2023-03-23T06:45:06;21.20;99.90
19622;DHT22;9958;33.196;-97.114;2023-03-23T06:47:35;21.20;99.90
19622;DHT22;9958;33.196;-97.114;2023-03-23T06:50:04;21.20;99.90
19622;DHT22;9958;33.196;-97.114;2023-03-23T06:52:34;21.10;99.90
19622;DHT22;9958;33.196;-97.114;2023-03-23T06:55:02;21.10;99.90
19622;DHT22;9958;33.196;-97.114;2023-03-23T06:57:30;21.10;99.90
19622;DHT22;9958;33.196;-97.114;2023-03-23T06:59:59;21.10;99.90
19622;DHT22;9958;33.196;-97.114;2023-03-23T07:02:28;21.00;99.90
19622;DHT22;9958;33.196;-97.114;2023-03-23T07:04:56;21.00;99.90
19622;DHT22;9958;33.196;-97.114;2023-03-23T07:07:25;21.00;99.90
19622;DHT22;9958;33.196;-97.114;2023-03-23T07:09:54;21.00;99.90
19622;DHT22;9958;33.196;-97.114;2023-03-23T07:12:23;21.00;99.90
19622;DHT22;9958;33.196;-97.114;2023-03-23T07:14:53;21.00;99.90
19622;DHT22;9958;33.196;-97.114;2023-03-23T07:17:22;21.00;99.90
19622;DHT22;9958;33.196;-97.114;2023-03-23T07:19:50;21.00;99.90
19622;DHT22;9958;33.196;-97.114;2023-03-23T07:22:18;20.90;99.90
19622;DHT22;9958;33.196;-97.114;2023-03-23T07:24:47;20.90;99.90
19622;DHT22;9958;33.196;-97.114;2023-03-23T07:27:16;20.90;99.90
19622;DHT22;9958;33.196;-97.114;2023-03-23T07:29:45;20.90;99.90
19622;DHT22;9958;33.196;-97.114;2023-03-23T07:32:13;20.90;99.90
19622;DHT22;9958;33.196;-97.114;2023-03-23T07:34:42;20.80;99.90
19622;DHT22;9958;33.196;-97.114;2023-03-23T07:37:10;20.90;99.90
19622;DHT22;9958;33.196;-97.114;2023-03-23T07:39:39;20.80;99.90
19622;DHT22;9958;33.196;-97.114;2023-03-23T07:42:08;20.80;99.90
19622;DHT22;9958;33.196;-97.114;2023-03-23T07:44:38;20.80;99.90
19622;DHT22;9958;33.196;-97.114;2023-03-23T07:47:06;20.80;99.90
19622;DHT22;9958;33.196;-97.114;2023-03-23T07:49:35;20.70;99.90
19622;DHT22;9958;33.196;-97.114;2023-03-23T07:52:03;20.70;99.90
19622;DHT22;9958;33.196;-97.114;2023-03-23T07:54:32;20.70;99.90
19622;DHT22;9958;33.196;-97.114;2023-03-23T07:57:00;20.70;99.90
19622;DHT22;9958;33.196;-97.114;2023-03-23T07:59:28;20.70;99.90
19622;DHT22;9958;33.196;-97.114;2023-03-23T08:01:59;20.70;99.90
19622;DHT22;9958;33.196;-97.114;2023-03-23T08:04:27;20.60;99.90
19622;DHT22;9958;33.196;-97.114;2023-03-23T08:06:56;20.60;99.90
19622;DHT22;9958;33.196;-97.114;2023-03-23T08:09:24;20.60;99.90
19622;DHT22;9958;33.196;-97.114;2023-03-23T08:11:53;20.50;99.90
19622;DHT22;9958;33.196;-97.114;2023-03-23T08:14:22;20.60;99.90
19622;DHT22;9958;33.196;-97.114;2023-03-23T08:16:54;20.50;99.90
19622;DHT22;9958;33.196;-97.114;2023-03-23T08:19:25;20.60;99.90
19622;DHT22;9958;33.196;-97.114;2023-03-23T08:21:53;20.60;99.90
19622;DHT22;9958;33.196;-97.114;2023-03-23T08:24:21;20.50;99.90
19622;DHT22;9958;33.196;-97.114;2023-03-23T08:26:50;20.60;99.90
19622;DHT22;9958;33.196;-97.114;2023-03-23T08:29:18;20.50;99.90
19622;DHT22;9958;33.196;-97.114;2023-03-23T08:31:46;20.50;99.90
19622;DHT22;9958;33.196;-97.114;2023-03-23T08:34:15;20.50;99.90
19622;DHT22;9958;33.196;-97.114;2023-03-23T08:36:45;20.50;99.90
19622;DHT22;9958;33.196;-97.114;2023-03-23T08:39:13;20.50;99.90
19622;DHT22;9958;33.196;-97.114;2023-03-23T08:41:42;20.50;99.90
19622;DHT22;9958;33.196;-97.114;2023-03-23T08:44:11;20.40;99.90
19622;DHT22;9958;33.196;-97.114;2023-03-23T08:46:39;20.40;99.90
19622;DHT22;9958;33.196;-97.114;2023-03-23T08:49:08;20.40;99.90
19622;DHT22;9958;33.196;-97.114;2023-03-23T08:51:36;20.40;99.90
19622;DHT22;9958;33.196;-97.114;2023-03-23T08:54:06;20.40;99.90
19622;DHT22;9958;33.196;-97.114;2023-03-23T08:56:35;20.40;99.90
19622;DHT22;9958;33.196;-97.114;2023-03-23T08:59:03;20.40;99.90
19622;DHT22;9958;33.196;-97.114;2023-03-23T09:01:33;20.40;99.90
19622;DHT22;9958;33.196;-97.114;2023-03-23T09:04:01;20.40;99.90
19622;DHT22;9958;33.196;-97.114;2023-03-23T09:06:30;20.40;99.90
19622;DHT22;9958;33.196;-97.114;2023-03-23T09:08:59;20.40;99.90
19622;DHT22;9958;33.196;-97.114;2023-03-23T09:11:34;20.50;99.90
19622;DHT22;9958;33.196;-97.114;2023-03-23T09:14:04;20.50;99.90
19622;DHT22;9958;33.196;-97.114;2023-03-23T09:16:33;20.50;99.90
19622;DHT22;9958;33.196;-97.114;2023-03-23T09:19:02;20.50;99.90
19622;DHT22;9958;33.196;-97.114;2023-03-23T09:21:30;20.50;99.90
19622;DHT22;9958;33.196;-97.114;2023-03-23T09:23:59;20.50;99.90
19622;DHT22;9958;33.196;-97.114;2023-03-23T09:26:28;20.50;99.90
19622;DHT22;9958;33.196;-97.114;2023-03-23T09:28:58;20.50;99.90
19622;DHT22;9958;33.196;-97.114;2023-03-23T09:31:27;20.50;99.90
19622;DHT22;9958;33.196;-97.114;2023-03-23T09:33:55;20.50;99.90
19622;DHT22;9958;33.196;-97.114;2023-03-23T09:36:25;20.40;99.90
19622;DHT22;9958;33.196;-97.114;2023-03-23T09:38:58;20.40;99.90
19622;DHT22;9958;33.196;-97.114;2023-03-23T09:41:44;20.40;99.90
19622;DHT22;9958;33.196;-97.114;2023-03-23T09:44:20;20.40;99.90
19622;DHT22;9958;33.196;-97.114;2023-03-23T09:46:56;20.40;99.90
19622;DHT22;9958;33.196;-97.114;2023-03-23T09:49:30;20.40;99.90
19622;DHT22;9958;33.196;-97.114;2023-03-23T09:52:03;20.30;99.90
19622;DHT22;9958;33.196;-97.114;2023-03-23T09:54:35;20.30;99.90
19622;DHT22;9958;33.196;-97.114;2023-03-23T09:57:15;20.30;99.90
19622;DHT22;9958;33.196;-97.114;2023-03-23T09:59:51;20.30;99.90
19622;DHT22;9958;33.196;-97.114;2023-03-23T10:02:27;20.30;99.90
19622;DHT22;9958;33.196;-97.114;2023-03-23T10:05:23;20.30;99.90
19622;DHT22;9958;33.196;-97.114;2023-03-23T10:07:54;20.30;99.90
19622;DHT22;9958;33.196;-97.114;2023-03-23T10:10:26;20.30;99.90
19622;DHT22;9958;33.196;-97.114;2023-03-23T10:13:01;20.30;99.90
19622;DHT22;9958;33.196;-97.114;2023-03-23T10:15:34;20.40;99.90
19622;DHT22;9958;33.196;-97.114;2023-03-23T10:18:09;20.40;99.90
19622;DHT22;9958;33.196;-97.114;2023-03-23T10:20:43;20.40;99.90
19622;DHT22;9958;33.196;-97.114;2023-03-23T10:23:43;20.40;99.90
19622;DHT22;9958;33.196;-97.114;2023-03-23T10:26:26;20.50;99.90
19622;DHT22;9958;33.196;-97.114;2023-03-23T10:28:58;20.50;99.90
19622;DHT22;9958;33.196;-97.114;2023-03-23T10:31:35;20.50;99.90
19622;DHT22;9958;33.196;-97.114;2023-03-23T10:34:10;20.50;99.90
19622;DHT22;9958;33.196;-97.114;2023-03-23T10:36:51;20.60;99.90
19622;DHT22;9958;33.196;-97.114;2023-03-23T10:39:24;20.60;99.90
19622;DHT22;9958;33.196;-97.114;2023-03-23T10:41:54;20.60;99.90
19622;DHT22;9958;33.196;-97.114;2023-03-23T10:44:25;20.60;99.90
19622;DHT22;9958;33.196;-97.114;2023-03-23T10:46:59;20.60;99.90
19622;DHT22;9958;33.196;-97.114;2023-03-23T10:49:33;20.60;99.90
19622;DHT22;9958;33.196;-97.114;2023-03-23T10:52:11;20.70;99.90
19622;DHT22;9958;33.196;-97.114;2023-03-23T10:54:50;20.70;99.90
19622;DHT22;9958;33.196;-97.114;2023-03-23T10:57:24;20.70;99.90
19622;DHT22;9958;33.196;-97.114;2023-03-23T10:59:58;20.60;99.90
19622;DHT22;9958;33.196;-97.114;2023-03-23T11:02:29;20.70;99.90
19622;DHT22;9958;33.196;-97.114;2023-03-23T11:05:00;20.70;99.90
19622;DHT22;9958;33.196;-97.114;2023-03-23T11:07:32;20.70;99.90
19622;DHT22;9958;33.196;-97.114;2023-03-23T11:10:11;20.70;99.90
19622;DHT22;9958;33.196;-97.114;2023-03-23T11:12:45;20.70;99.90
19622;DHT22;9958;33.196;-97.114;2023-03-23T11:15:29;20.70;99.90
19622;DHT22;9958;33.196;-97.114;2023-03-23T11:18:02;20.70;99.90
19622;DHT22;9958;33.196;-97.114;2023-03-23T11:20:36;20.70;99.90
19622;DHT22;9958;33.196;-97.114;2023-03-23T11:23:13;20.70;99.90
19622;DHT22;9958;33.196;-97.114;2023-03-23T11:25:55;20.70;99.90
19622;DHT22;9958;33.196;-97.114;2023-03-23T11:28:28;20.70;99.90
19622;DHT22;9958;33.196;-97.114;2023-03-23T11:30:59;20.70;99.90
19622;DHT22;9958;33.196;-97.114;2023-03-23T11:33:36;20.60;99.90
19622;DHT22;9958;33.196;-97.114;2023-03-23T11:36:07;20.60;99.90
19622;DHT22;9958;33.196;-97.114;2023-03-23T11:38:37;20.60;99.90
19622;DHT22;9958;33.196;-97.114;2023-03-23T11:41:10;20.60;99.90
19622;DHT22;9958;33.196;-97.114;2023-03-23T11:43:46;20.60;99.90
19622;DHT22;9958;33.196;-97.114;2023-03-23T11:46:24;20.60;99.90
19622;DHT22;9958;33.196;-97.114;2023-03-23T11:48:58;20.60;99.90
19622;DHT22;9958;33.196;-97.114;2023-03-23T11:51:33;20.50;99.90
19622;DHT22;9958;33.196;-97.114;2023-03-23T11:54:11;20.50;99.90
19622;DHT22;9958;33.196;-97.114;2023-03-23T11:56:43;20.50;99.90
19622;DHT22;9958;33.196;-97.114;2023-03-23T11:59:14;20.50;99.90
19622;DHT22;9958;33.196;-97.114;2023-03-23T12:01:48;20.50;99.90
19622;DHT22;9958;33.196;-97.114;2023-03-23T12:04:42;20.50;99.90
19622;DHT22;9958;33.196;-97.114;2023-03-23T12:07:25;20.50;99.90
19622;DHT22;9958;33.196;-97.114;2023-03-23T12:10:07;20.50;99.90
19622;DHT22;9958;33.196;-97.114;2023-03-23T12:12:43;20.50;99.90
19622;DHT22;9958;33.196;-97.114;2023-03-23T12:15:21;20.50;99.90
19622;DHT22;9958;33.196;-97.114;2023-03-23T12:17:57;20.40;99.90
19622;DHT22;9958;33.196;-97.114;2023-03-23T12:20:40;20.50;99.90
19622;DHT22;9958;33.196;-97.114;2023-03-23T12:23:22;20.50;99.90
19622;DHT22;9958;33.196;-97.114;2023-03-23T12:26:14;20.50;99.90
19622;DHT22;9958;33.196;-97.114;2023-03-23T12:28:58;20.40;99.90
19622;DHT22;9958;33.196;-97.114;2023-03-23T12:31:35;20.50;99.90
19622;DHT22;9958;33.196;-97.114;2023-03-23T12:34:13;20.50;99.90
19622;DHT22;9958;33.196;-97.114;2023-03-23T12:36:53;20.50;99.90
19622;DHT22;9958;33.196;-97.114;2023-03-23T12:42:26;20.60;99.90
19622;DHT22;9958;33.196;-97.114;2023-03-23T12:45:00;20.60;99.90
19622;DHT22;9958;33.196;-97.114;2023-03-23T12:47:35;20.70;99.90
19622;DHT22;9958;33.196;-97.114;2023-03-23T12:50:10;20.70;99.90
19622;DHT22;9958;33.196;-97.114;2023-03-23T12:52:49;20.80;99.90
19622;DHT22;9958;33.196;-97.114;2023-03-23T12:55:23;20.70;99.90
19622;DHT22;9958;33.196;-97.114;2023-03-23T12:57:57;20.80;99.90
19622;DHT22;9958;33.196;-97.114;2023-03-23T13:00:29;20.80;99.90
19622;DHT22;9958;33.196;-97.114;2023-03-23T13:03:02;20.90;99.90
19622;DHT22;9958;33.196;-97.114;2023-03-23T13:05:38;20.90;99.90
19622;DHT22;9958;33.196;-97.114;2023-03-23T13:08:13;20.90;99.90
19622;DHT22;9958;33.196;-97.114;2023-03-23T13:10:46;21.00;99.90
19622;DHT22;9958;33.196;-97.114;2023-03-23T13:13:19;21.00;99.90
19622;DHT22;9958;33.196;-97.114;2023-03-23T13:16:06;21.00;99.90
19622;DHT22;9958;33.196;-97.114;2023-03-23T13:18:40;21.10;99.90
19622;DHT22;9958;33.196;-97.114;2023-03-23T13:21:16;21.20;99.90
19622;DHT22;9958;33.196;-97.114;2023-03-23T13:23:52;21.20;99.90
19622;DHT22;9958;33.196;-97.114;2023-03-23T13:26:23;21.30;99.90
19622;DHT22;9958;33.196;-97.114;2023-03-23T13:28:56;21.30;99.90
19622;DHT22;9958;33.196;-97.114;2023-03-23T13:31:26;21.40;99.90
19622;DHT22;9958;33.196;-97.114;2023-03-23T13:34:10;21.40;99.90
19622;DHT22;9958;33.196;-97.114;2023-03-23T13:36:42;21.50;99.90
19622;DHT22;9958;33.196;-97.114;2023-03-23T13:39:21;21.50;99.90
19622;DHT22;9958;33.196;-97.114;2023-03-23T13:42:02;21.50;99.90
19622;DHT22;9958;33.196;-97.114;2023-03-23T13:44:43;21.60;99.90
19622;DHT22;9958;33.196;-97.114;2023-03-23T13:47:26;21.70;99.90
19622;DHT22;9958;33.196;-97.114;2023-03-23T13:49:57;21.70;99.90
19622;DHT22;9958;33.196;-97.114;2023-03-23T13:52:37;21.70;99.90
19622;DHT22;9958;33.196;-97.114;2023-03-23T13:55:29;21.80;99.90
19622;DHT22;9958;33.196;-97.114;2023-03-23T13:58:09;21.90;99.90
19622;DHT22;9958;33.196;-97.114;2023-03-23T14:00:46;21.90;99.90
19622;DHT22;9958;33.196;-97.114;2023-03-23T14:03:19;21.90;99.90
19622;DHT22;9958;33.196;-97.114;2023-03-23T14:06:02;22.00;99.90
19622;DHT22;9958;33.196;-97.114;2023-03-23T14:08:42;22.00;99.90
19622;DHT22;9958;33.196;-97.114;2023-03-23T14:11:19;22.10;99.90
19622;DHT22;9958;33.196;-97.114;2023-03-23T14:14:01;22.10;99.90
19622;DHT22;9958;33.196;-97.114;2023-03-23T14:16:37;22.20;99.90
19622;DHT22;9958;33.196;-97.114;2023-03-23T14:19:16;22.20;99.90
19622;DHT22;9958;33.196;-97.114;2023-03-23T14:21:51;22.30;99.90
19622;DHT22;9958;33.196;-97.114;2023-03-23T14:24:22;22.40;99.90
19622;DHT22;9958;33.196;-97.114;2023-03-23T14:27:02;22.50;99.90
19622;DHT22;9958;33.196;-97.114;2023-03-23T14:29:31;22.60;99.90
19622;DHT22;9958;33.196;-97.114;2023-03-23T14:32:00;22.70;99.90
19622;DHT22;9958;33.196;-97.114;2023-03-23T14:34:31;22.90;99.90
19622;DHT22;9958;33.196;-97.114;2023-03-23T14:37:00;23.00;99.90
19622;DHT22;9958;33.196;-97.114;2023-03-23T14:39:29;23.10;99.90
19622;DHT22;9958;33.196;-97.114;2023-03-23T14:42:04;23.30;99.90
19622;DHT22;9958;33.196;-97.114;2023-03-23T14:44:39;23.40;99.90
19622;DHT22;9958;33.196;-97.114;2023-03-23T14:47:15;23.50;99.90
19622;DHT22;9958;33.196;-97.114;2023-03-23T14:49:44;23.60;99.90
19622;DHT22;9958;33.196;-97.114;2023-03-23T14:52:15;23.80;99.90
19622;DHT22;9958;33.196;-97.114;2023-03-23T14:54:45;23.90;99.90
19622;DHT22;9958;33.196;-97.114;2023-03-23T14:57:16;24.10;99.90
19622;DHT22;9958;33.196;-97.114;2023-03-23T14:59:46;24.30;99.90
19622;DHT22;9958;33.196;-97.114;2023-03-23T15:02:17;24.40;99.90
19622;DHT22;9958;33.196;-97.114;2023-03-23T15:04:49;24.60;99.90
19622;DHT22;9958;33.196;-97.114;2023-03-23T15:07:20;24.70;99.90
19622;DHT22;9958;33.196;-97.114;2023-03-23T15:09:49;24.80;99.90
19622;DHT22;9958;33.196;-97.114;2023-03-23T15:12:23;25.00;99.90
19622;DHT22;9958;33.196;-97.114;2023-03-23T15:14:54;25.10;99.90
19622;DHT22;9958;33.196;-97.114;2023-03-23T15:17:25;25.20;99.90
19622;DHT22;9958;33.196;-97.114;2023-03-23T15:19:55;25.30;99.90
19622;DHT22;9958;33.196;-97.114;2023-03-23T15:22:26;25.30;99.90
19622;DHT22;9958;33.196;-97.114;2023-03-23T15:25:03;25.40;99.90
19622;DHT22;9958;33.196;-97.114;2023-03-23T15:27:43;25.40;99.90
19622;DHT22;9958;33.196;-97.114;2023-03-23T15:30:18;25.40;99.90
19622;DHT22;9958;33.196;-97.114;2023-03-23T15:32:49;25.50;99.90
19622;DHT22;9958;33.196;-97.114;2023-03-23T15:35:20;25.60;99.90
19622;DHT22;9958;33.196;-97.114;2023-03-23T15:37:51;25.60;99.90
19622;DHT22;9958;33.196;-97.114;2023-03-23T15:40:22;25.60;99.90
19622;DHT22;9958;33.196;-97.114;2023-03-23T15:43:07;25.60;99.90
19622;DHT22;9958;33.196;-97.114;2023-03-23T15:45:35;25.60;99.90
19622;DHT22;9958;33.196;-97.114;2023-03-23T15:48:12;25.60;99.90
19622;DHT22;9958;33.196;-97.114;2023-03-23T15:50:40;25.60;99.90
19622;DHT22;9958;33.196;-97.114;2023-03-23T15:53:23;25.60;99.90
19622;DHT22;9958;33.196;-97.114;2023-03-23T15:55:53;25.60;99.90
19622;DHT22;9958;33.196;-97.114;2023-03-23T15:58:23;25.50;99.90